Time;durP1;ratioP1;P1;durP2;ratioP2;P2;SDS_P1;SDS_P2;PMS_P1;PMS_P2;Temp;Humidity;BMP_temperature;BMP_pressure;BME280_temperature;BME280_humidity;BME280_pressure;Samples;Min_cycle;Max_cycle;Signal;HPM_P1;HPM_P2
2023/09/08 00:01:07;;;;;;;;;13.50;13.50;;;;;14.71;85.18;100253.56;6283231;20;2795083;-56
2023/09/08 00:03:35;;;;;;;;;16.00;16.00;;;;;14.74;85.26;100249.78;6311723;20;2491978;-55
2023/09/08 00:06:04;;;;;;;;;16.00;14.50;;;;;14.48;85.63;100251.56;6283214;20;2489857;-54
2023/09/08 00:08:33;;;;;;;;;17.33;15.00;;;;;14.07;86.43;100257.94;6278492;20;3546181;-55
2023/09/08 00:11:01;;;;;;;;;17.00;15.50;;;;;14.38;86.47;100250.50;6282098;20;2489898;-53
2023/09/08 00:13:30;;;;;;;;;18.00;18.00;;;;;14.53;84.91;100253.97;6282856;20;2831497;-54
2023/09/08 00:15:58;;;;;;;;;13.00;13.00;;;;;14.23;86.08;100261.34;6281766;20;2500275;-56
2023/09/08 00:18:26;;;;;;;;;15.00;13.00;;;;;14.55;83.97;100260.16;6283100;20;2494026;-56
2023/09/08 00:20:55;;;;;;;;;14.00;14.00;;;;;14.48;84.83;100265.97;6282822;20;3523273;-56
2023/09/08 00:23:23;;;;;;;;;15.00;13.00;;;;;14.35;85.10;100258.78;6312188;20;2500272;-55
2023/09/08 00:25:51;;;;;;;;;16.00;16.00;;;;;13.92;85.87;100261.66;6280972;20;2494118;-57
2023/09/08 00:28:20;;;;;;;;;17.00;17.00;;;;;14.04;87.03;100250.91;6280794;20;3563880;-56
2023/09/08 00:30:49;;;;;;;;;15.00;15.00;;;;;14.53;86.30;100262.09;6283188;20;2810730;-54
2023/09/08 00:33:19;;;;;;;;;19.50;17.50;;;;;14.70;85.72;100257.25;6279373;20;2837822;-54
2023/09/08 00:35:50;;;;;;;;;15.33;15.33;;;;;14.65;85.52;100259.41;6280810;20;3538798;-58
2023/09/08 00:38:19;;;;;;;;;16.50;14.50;;;;;14.78;85.62;100261.28;6278435;20;2500275;-56
2023/09/08 00:40:46;;;;;;;;;17.50;17.00;;;;;15.00;85.06;100253.38;6282970;20;2496145;-56
2023/09/08 00:43:17;;;;;;;;;16.00;16.00;;;;;15.07;84.38;100248.41;6277873;20;2821114;-55
2023/09/08 00:45:46;;;;;;;;;16.00;16.00;;;;;14.87;85.36;100249.78;6312911;20;2487851;-56
2023/09/08 00:48:15;;;;;;;;;20.00;16.50;;;;;15.17;84.54;100248.63;6282208;20;2839854;-53
2023/09/08 00:50:43;;;;;;;;;21.50;17.00;;;;;15.15;84.66;100252.28;6279639;20;2483654;-51
2023/09/08 00:53:11;;;;;;;;;20.50;17.00;;;;;15.04;84.69;100251.31;6278974;20;2494092;-54
2023/09/08 00:55:40;;;;;;;;;12.50;12.50;;;;;14.93;84.91;100243.97;6276689;20;3408610;-56
2023/09/08 00:58:10;;;;;;;;;15.67;15.67;;;;;14.88;84.28;100252.41;6311636;20;2817010;-54
2023/09/08 01:00:38;;;;;;;;;18.67;17.33;;;;;14.73;85.19;100241.81;6310417;20;3559641;-53
2023/09/08 01:03:07;;;;;;;;;16.00;15.00;;;;;14.65;84.99;100240.50;6282326;20;2813850;-55
2023/09/08 01:05:36;;;;;;;;;18.00;16.50;;;;;14.83;84.31;100240.19;6279239;20;2835715;-56
2023/09/08 01:08:06;;;;;;;;;16.67;15.00;;;;;14.62;84.46;100245.25;6282741;20;3541938;-53
2023/09/08 01:10:36;;;;;;;;;15.00;15.00;;;;;14.51;84.49;100237.88;6279944;20;2500285;-55
2023/09/08 01:13:05;;;;;;;;;16.50;16.00;;;;;14.25;85.53;100236.94;6280749;20;2491905;-55
2023/09/08 01:15:33;;;;;;;;;18.33;18.33;;;;;14.17;86.15;100236.59;6279878;20;3567122;-55
2023/09/08 01:18:01;;;;;;;;;18.00;17.00;;;;;14.28;86.19;100236.72;6279220;20;2494083;-54
2023/09/08 01:21:05;;;;;;;;;15.00;14.50;;;;;14.54;86.44;100228.72;6279146;20;2500321;-54
2023/09/08 01:24:03;;;;;;;;;16.00;15.00;;;;;14.79;85.58;100233.25;6279708;20;2496171;-56
2023/09/08 01:26:41;;;;;;;;;18.50;17.00;;;;;14.62;85.79;100227.19;6280257;20;2496140;-56
2023/09/08 01:29:11;;;;;;;;;20.50;18.00;;;;;14.44;86.39;100223.03;6280985;20;2840990;-57
2023/09/08 01:31:40;;;;;;;;;17.00;15.33;;;;;14.37;86.55;100224.41;6278021;20;3556686;-53
2023/09/08 01:34:10;;;;;;;;;18.00;16.00;;;;;14.15;87.13;100231.28;6280616;20;2830549;-51
2023/09/08 01:36:39;;;;;;;;;16.67;16.67;;;;;14.16;87.08;100233.00;6278131;20;3560755;-55
2023/09/08 01:39:07;;;;;;;;;21.00;19.00;;;;;14.27;86.34;100230.47;6274013;20;2494033;-55
2023/09/08 01:41:35;;;;;;;;;17.33;16.00;;;;;14.24;86.10;100235.19;6278126;20;3557624;-55
2023/09/08 01:44:07;;;;;;;;;22.50;19.50;;;;;14.25;85.73;100226.13;6278984;20;2842008;-53
2023/09/08 01:46:38;;;;;;;;;15.33;15.33;;;;;13.83;86.38;100236.16;6280781;20;3539870;-60
2023/09/08 01:49:07;;;;;;;;;15.00;15.00;;;;;13.86;86.42;100230.56;6274212;20;2805508;-60
2023/09/08 01:51:36;;;;;;;;;18.00;17.00;;;;;13.73;87.72;100229.63;6277285;20;2837789;-59
2023/09/08 01:54:05;;;;;;;;;21.00;19.00;;;;;14.01;86.93;100226.84;6281490;20;2822150;-60
2023/09/08 01:56:32;;;;;;;;;17.00;17.00;;;;;14.15;86.53;100222.34;6278523;20;2500465;-60
2023/09/08 01:59:00;;;;;;;;;16.00;16.00;;;;;13.95;87.42;100220.97;6272752;20;2488705;-59
2023/09/08 02:01:28;;;;;;;;;20.00;17.00;;;;;14.14;87.20;100218.78;6277240;20;2491927;-59
2023/09/08 02:03:57;;;;;;;;;18.00;17.50;;;;;14.05;88.35;100224.78;6279386;20;2833642;-60
2023/09/08 02:06:25;;;;;;;;;20.33;18.33;;;;;14.15;87.92;100219.63;6282001;20;2835077;-60
2023/09/08 02:08:54;;;;;;;;;21.00;19.00;;;;;14.05;88.37;100231.03;6312554;20;2837815;-60
2023/09/08 02:11:23;;;;;;;;;19.50;19.50;;;;;14.26;87.00;100222.47;6286034;20;2826480;-60
2023/09/08 02:13:52;;;;;;;;;18.00;17.00;;;;;14.19;87.13;100229.25;6283141;20;2833620;-60
2023/09/08 02:16:25;;;;;;;;;16.00;15.00;;;;;13.64;87.84;100228.41;6285636;20;2811941;-60
2023/09/08 02:18:53;;;;;;;;;18.50;14.50;;;;;13.95;86.01;100223.66;6277883;20;2500875;-60
2023/09/08 02:21:22;;;;;;;;;18.00;17.00;;;;;13.33;88.36;100216.06;6285089;20;2836123;-60
2023/09/08 02:23:50;;;;;;;;;19.00;17.50;;;;;14.01;86.13;100223.28;6288400;20;2837760;-60
2023/09/08 02:26:19;;;;;;;;;18.00;17.00;;;;;13.70;85.27;100222.59;6285008;20;2830513;-60
2023/09/08 02:28:46;;;;;;;;;15.00;15.00;;;;;13.57;86.08;100218.97;6283879;20;2812805;-60
2023/09/08 02:31:15;;;;;;;;;14.00;14.00;;;;;13.28;86.93;100215.47;6284818;20;3535816;-60
2023/09/08 02:33:44;;;;;;;;;18.50;18.50;;;;;13.21;86.29;100217.66;6281583;20;2839900;-59
2023/09/08 02:36:13;;;;;;;;;18.00;15.33;;;;;13.28;87.08;100219.03;6281781;20;3558652;-60
2023/09/08 02:38:42;;;;;;;;;21.00;19.00;;;;;13.01;88.19;100220.78;6284181;20;2844048;-60
2023/09/08 02:41:10;;;;;;;;;18.50;17.00;;;;;12.93;88.36;100218.56;6284886;20;2496276;-60
2023/09/08 02:43:38;;;;;;;;;21.00;19.00;;;;;12.91;88.15;100218.66;6285926;20;2844019;-60
2023/09/08 02:46:09;;;;;;;;;16.50;16.50;;;;;13.10;87.91;100228.28;6284402;20;2483644;-60
2023/09/08 02:48:37;;;;;;;;;15.00;15.00;;;;;13.05;87.64;100214.22;6281200;20;2500338;-60
2023/09/08 02:51:08;;;;;;;;;14.33;14.33;;;;;13.26;87.33;100212.88;6281074;20;3539884;-60
2023/09/08 02:53:36;;;;;;;;;18.00;17.00;;;;;13.04;87.08;100217.88;6281480;20;2483611;-59
2023/09/08 02:56:05;;;;;;;;;20.00;18.00;;;;;12.74;88.96;100214.31;6288433;20;2500244;-59
2023/09/08 02:58:33;;;;;;;;;16.00;16.00;;;;;13.03;88.71;100214.28;6280835;20;2494074;-60
2023/09/08 03:01:20;;;;;;;;;15.00;15.00;;;;;13.20;88.38;100212.38;6285275;20;3531509;-60
2023/09/08 03:03:49;;;;;;;;;17.50;16.00;;;;;12.76;89.47;100216.91;6315952;20;2825393;-60
2023/09/08 03:06:21;;;;;;;;;19.00;18.00;;;;;13.08;88.99;100220.25;6281875;20;2831543;-60
2023/09/08 03:08:49;;;;;;;;;18.00;16.00;;;;;13.45;88.98;100214.38;6284291;20;2831501;-60
2023/09/08 03:11:18;;;;;;;;;19.50;19.00;;;;;13.39;88.95;100221.91;6282670;20;2838203;-60
2023/09/08 03:13:47;;;;;;;;;17.50;17.50;;;;;13.13;89.65;100215.44;6282968;20;2833720;-60
2023/09/08 03:16:16;;;;;;;;;17.00;16.50;;;;;12.79;89.72;100221.25;6283361;20;2833708;-60
2023/09/08 03:18:45;;;;;;;;;19.50;18.00;;;;;13.15;88.78;100218.91;6281405;20;2827464;-60
2023/09/08 03:21:15;;;;;;;;;20.00;16.00;;;;;13.12;88.48;100210.16;6281860;20;2491989;-60
2023/09/08 03:23:45;;;;;;;;;19.00;17.00;;;;;13.36;88.09;100221.25;6284089;20;3574286;-60
2023/09/08 03:26:14;;;;;;;;;20.50;20.00;;;;;13.09;88.57;100223.84;6283093;20;2841988;-60
2023/09/08 03:28:43;;;;;;;;;17.33;17.33;;;;;13.23;89.65;100220.28;6284737;20;3571111;-60
2023/09/08 03:31:12;;;;;;;;;22.00;18.00;;;;;13.47;89.41;100228.63;6314514;20;3559655;-60
2023/09/08 03:33:42;;;;;;;;;19.50;19.50;;;;;13.41;89.38;100226.34;6312936;20;2846195;-60
2023/09/08 03:36:11;;;;;;;;;20.50;19.00;;;;;13.78;88.93;100227.50;6278584;20;2835737;-60
2023/09/08 03:38:41;;;;;;;;;20.50;20.50;;;;;13.24;89.91;100227.38;6281593;20;2842976;-60
2023/09/08 03:41:10;;;;;;;;;21.50;20.50;;;;;13.57;89.56;100232.47;6282640;20;2843178;-60
2023/09/08 03:43:40;;;;;;;;;20.00;20.00;;;;;13.39;89.85;100229.13;6282021;20;2839862;-60
2023/09/08 03:46:09;;;;;;;;;19.00;17.50;;;;;13.46;89.92;100230.47;6314536;20;2834669;-60
2023/09/08 03:48:38;;;;;;;;;20.50;20.00;;;;;13.29;90.01;100230.69;6280769;20;2821312;-60
2023/09/08 03:51:06;;;;;;;;;19.00;18.50;;;;;13.37;90.51;100239.16;6283150;20;2848206;-60
2023/09/08 03:53:35;;;;;;;;;22.00;21.00;;;;;13.11;91.04;100236.28;6280659;20;2840039;-60
2023/09/08 03:56:05;;;;;;;;;18.00;18.00;;;;;13.30;90.55;100229.75;6279906;20;2828413;-60
2023/09/08 03:58:33;;;;;;;;;19.50;17.00;;;;;13.36;90.61;100230.19;6281294;20;2833698;-60
2023/09/08 04:01:02;;;;;;;;;19.50;19.50;;;;;13.43;90.68;100236.06;6280387;20;2844065;-60
2023/09/08 04:03:32;;;;;;;;;30.00;23.67;;;;;13.18;90.77;100239.44;6280920;20;2859753;-59
2023/09/08 04:06:01;;;;;;;;;23.00;19.00;;;;;13.18;90.78;100234.03;6313921;20;2833623;-60
2023/09/08 04:08:31;;;;;;;;;26.67;22.67;;;;;13.20;91.31;100237.50;6280097;20;2842006;-60
2023/09/08 04:11:00;;;;;;;;;24.00;21.67;;;;;13.06;91.71;100234.81;6313678;20;3583629;-60
2023/09/08 04:13:27;;;;;;;;;23.00;21.00;;;;;13.42;90.89;100230.75;6273957;20;2501305;-60
2023/09/08 04:15:56;;;;;;;;;24.67;22.00;;;;;13.21;91.04;100232.97;6283393;20;3572303;-60
2023/09/08 04:18:25;;;;;;;;;24.00;22.50;;;;;13.36;89.72;100240.97;6276764;20;2845073;-59
2023/09/08 04:20:54;;;;;;;;;18.00;18.00;;;;;13.33;90.18;100243.03;6282990;20;2827377;-60
2023/09/08 04:23:22;;;;;;;;;20.00;20.00;;;;;13.56;88.18;100247.81;6280324;20;2500317;-60
2023/09/08 04:25:51;;;;;;;;;23.00;22.00;;;;;13.41;88.38;100240.69;6279893;20;2829483;-60
2023/09/08 04:28:22;;;;;;;;;23.25;21.75;;;;;13.25;88.73;100251.56;6305204;20;3587763;-60
2023/09/08 04:30:51;;;;;;;;;25.00;24.00;;;;;13.25;89.19;100243.47;6274102;20;2853538;-60
2023/09/08 04:33:20;;;;;;;;;22.00;21.00;;;;;13.41;89.09;100247.94;6279797;20;2824374;-60
2023/09/08 04:35:49;;;;;;;;;23.00;20.50;;;;;13.47;88.91;100247.53;6279245;20;2846099;-60
2023/09/08 04:38:18;;;;;;;;;19.00;19.00;;;;;13.75;89.66;100257.41;6282075;20;3571202;-60
2023/09/08 04:40:47;;;;;;;;;21.33;21.00;;;;;13.84;89.54;100260.34;6311563;20;2850413;-57
2023/09/08 04:43:16;;;;;;;;;30.67;26.00;;;;;13.98;89.45;100247.75;6312311;20;3600476;-60
2023/09/08 04:45:45;;;;;;;;;24.00;23.00;;;;;13.91;89.82;100252.72;6278620;20;2842076;-59
2023/09/08 04:48:14;;;;;;;;;24.50;23.00;;;;;14.12;89.44;100247.72;6310478;20;2843040;-60
2023/09/08 04:50:43;;;;;;;;;25.00;23.50;;;;;14.19;89.35;100248.16;6278566;20;2854460;-60
2023/09/08 04:53:13;;;;;;;;;23.33;21.00;;;;;14.34;88.77;100255.22;6279143;20;2842489;-60
2023/09/08 04:55:41;;;;;;;;;27.67;25.00;;;;;14.12;89.81;100247.72;6313858;20;3594029;-60
2023/09/08 04:58:11;;;;;;;;;26.33;24.00;;;;;14.28;90.22;100245.69;6275554;20;2852484;-60
2023/09/08 05:00:40;;;;;;;;;28.33;22.33;;;;;14.44;89.48;100241.94;6313879;20;3596113;-61
2023/09/08 05:03:09;;;;;;;;;28.33;23.00;;;;;14.59;89.18;100250.88;6282497;20;3585697;-60
2023/09/08 05:05:39;;;;;;;;;22.00;22.00;;;;;14.53;89.11;100243.19;6279378;20;2850762;-60
2023/09/08 05:08:08;;;;;;;;;24.00;21.00;;;;;14.80;88.60;100248.53;6306888;20;2844149;-60
2023/09/08 05:10:37;;;;;;;;;25.33;21.67;;;;;14.52;89.19;100249.53;6312096;20;3581748;-60
2023/09/08 05:13:06;;;;;;;;;23.00;21.50;;;;;14.38;88.26;100253.19;6280232;20;2825471;-60
2023/09/08 05:15:48;;;;;;;;;22.00;20.00;;;;;14.43;88.50;100249.19;6277906;20;2835788;-60
2023/09/08 05:18:17;;;;;;;;;21.00;18.50;;;;;14.77;87.70;100255.00;6279025;20;2827447;-60
2023/09/08 05:20:48;;;;;;;;;17.50;17.50;;;;;14.99;86.00;100259.75;6278602;20;2831701;-60
2023/09/08 05:23:17;;;;;;;;;23.00;21.00;;;;;14.77;87.07;100259.53;6281615;20;2844072;-60
2023/09/08 05:25:46;;;;;;;;;20.33;20.33;;;;;15.12;86.88;100260.63;6279891;20;3585830;-60
2023/09/08 05:28:14;;;;;;;;;23.67;22.00;;;;;15.21;87.53;100258.22;6280945;20;3582715;-60
2023/09/08 05:30:43;;;;;;;;;26.00;22.50;;;;;15.33;87.17;100260.06;6280420;20;2833704;-60
2023/09/08 05:33:12;;;;;;;;;22.33;21.33;;;;;15.71;86.27;100257.28;6279792;20;3580483;-60
2023/09/08 05:35:44;;;;;;;;;25.33;20.00;;;;;15.92;85.28;100265.63;6281466;20;3581535;-60
2023/09/08 05:38:14;;;;;;;;;22.33;20.67;;;;;16.01;84.39;100264.97;6275702;20;2848280;-60
2023/09/08 05:40:43;;;;;;;;;19.67;19.67;;;;;16.13;84.67;100263.16;6311492;20;3557553;-60
2023/09/08 05:43:11;;;;;;;;;23.67;20.67;;;;;16.35;83.65;100270.56;6319218;20;3581500;-60
2023/09/08 05:45:40;;;;;;;;;25.00;24.00;;;;;16.54;83.29;100270.00;6285139;20;2843053;-60
2023/09/08 05:48:10;;;;;;;;;23.67;23.33;;;;;16.77;83.08;100270.03;6282533;20;2848362;-60
2023/09/08 05:50:40;;;;;;;;;26.00;24.00;;;;;17.10;82.20;100274.72;6317046;20;3590985;-60
2023/09/08 05:53:08;;;;;;;;;24.00;23.67;;;;;18.68;77.59;100279.84;6286390;20;3590239;-60
2023/09/08 05:55:37;;;;;;;;;20.50;17.00;;;;;19.70;73.97;100273.56;6285553;20;2839869;-60
2023/09/08 05:58:07;;;;;;;;;23.67;22.33;;;;;19.80;72.29;100279.03;6281663;20;3582794;-59
2023/09/08 06:00:35;;;;;;;;;16.00;16.00;;;;;19.28;74.13;100276.38;6285037;20;2829524;-59
2023/09/08 06:03:05;;;;;;;;;23.67;20.33;;;;;19.04;75.15;100278.53;6283209;20;2834623;-60
2023/09/08 06:05:34;;;;;;;;;21.00;20.00;;;;;18.82;76.24;100277.66;6317483;20;3575262;-60
2023/09/08 06:08:04;;;;;;;;;18.33;17.00;;;;;18.75;77.02;100275.63;6279246;20;2842004;-60
2023/09/08 06:10:35;;;;;;;;;22.33;21.00;;;;;18.70;77.80;100273.25;6315711;20;3580648;-60
2023/09/08 06:13:04;;;;;;;;;22.67;20.67;;;;;18.97;77.17;100275.47;6285398;20;3584781;-60
2023/09/08 06:15:33;;;;;;;;;24.67;21.00;;;;;19.01;76.62;100273.34;6272925;20;3588796;-60
2023/09/08 06:18:03;;;;;;;;;26.67;22.33;;;;;19.22;76.25;100270.59;6285806;20;3588842;-60
2023/09/08 06:20:32;;;;;;;;;20.67;20.67;;;;;19.26;76.30;100269.31;6288540;20;3580462;-60
2023/09/08 06:23:01;;;;;;;;;19.67;19.67;;;;;19.32;76.31;100279.66;6283481;20;2843121;-60
2023/09/08 06:25:30;;;;;;;;;22.00;22.00;;;;;19.47;75.94;100282.91;6316275;20;3575306;-60
2023/09/08 06:27:59;;;;;;;;;27.67;24.67;;;;;19.84;75.81;100280.47;6283305;20;3596137;-60
2023/09/08 06:30:27;;;;;;;;;49.67;41.67;;;;;20.14;74.53;100286.81;6281821;20;3586772;-61
2023/09/08 06:32:56;;;;;;;;;21.50;18.00;;;;;20.01;73.91;100281.66;6281553;20;2835834;-62
2023/09/08 06:35:27;;;;;;;;;23.00;22.00;;;;;20.25;73.30;100289.44;6280281;20;3579461;-61
2023/09/08 06:37:57;;;;;;;;;21.50;20.50;;;;;20.56;73.45;100287.50;6282233;20;2841995;-61
2023/09/08 06:40:31;;;;;;;;;21.00;19.00;;;;;20.74;71.47;100290.31;6284189;20;3575505;-62
2023/09/08 06:43:00;;;;;;;;;20.00;18.33;;;;;21.38;69.80;100288.78;6286620;20;3573182;-61
2023/09/08 06:45:31;;;;;;;;;19.67;18.33;;;;;21.42;69.11;100289.34;6284650;20;3564938;-61
2023/09/08 06:48:00;;;;;;;;;21.67;20.00;;;;;21.70;67.82;100302.03;6282462;20;3585673;-60
2023/09/08 06:50:30;;;;;;;;;18.67;18.67;;;;;21.98;66.35;100302.00;6287258;20;3576332;-62
2023/09/08 06:53:00;;;;;;;;;18.67;16.67;;;;;21.78;65.96;100295.81;6285306;20;3569021;-61
2023/09/08 06:55:29;;;;;;;;;16.50;16.00;;;;;22.03;64.88;100302.41;6280145;20;2823225;-61
2023/09/08 06:57:58;;;;;;;;;22.00;19.00;;;;;22.06;63.58;100302.09;6288440;20;3571217;-61
2023/09/08 07:00:28;;;;;;;;;17.67;16.67;;;;;22.30;61.92;100306.16;6281864;20;3575324;-62
2023/09/08 07:02:56;;;;;;;;;15.00;15.00;;;;;22.57;61.51;100311.56;6286259;20;3535703;-62
2023/09/08 07:05:25;;;;;;;;;17.67;17.67;;;;;22.70;61.00;100302.13;6313745;20;3558737;-62
2023/09/08 07:07:54;;;;;;;;;18.00;15.67;;;;;23.14;60.14;100313.09;6285805;20;3562784;-61
2023/09/08 07:10:23;;;;;;;;;17.33;17.00;;;;;22.93;59.45;100317.03;6282302;20;3564915;-61
2023/09/08 07:12:51;;;;;;;;;17.00;15.67;;;;;23.61;56.36;100315.44;6284786;20;3556501;-61
2023/09/08 07:15:21;;;;;;;;;16.33;16.33;;;;;23.85;55.40;100318.31;6279846;20;2830057;-61
2023/09/08 07:17:50;;;;;;;;;20.00;19.33;;;;;24.09;55.21;100311.19;6319592;20;3556611;-60
2023/09/08 07:20:18;;;;;;;;;20.33;17.67;;;;;23.74;57.32;100307.63;6284826;20;3566962;-60
2023/09/08 07:22:47;;;;;;;;;18.33;17.67;;;;;23.83;56.14;100303.94;6286358;20;3561844;-60
2023/09/08 07:25:17;;;;;;;;;17.00;17.00;;;;;24.19;55.65;100300.94;6281615;20;2835830;-60
2023/09/08 07:27:45;;;;;;;;;20.00;20.00;;;;;24.02;55.65;100300.03;6319593;20;3568010;-56
2023/09/08 07:30:14;;;;;;;;;18.00;16.00;;;;;23.98;55.70;100309.63;6283856;20;2833693;-59
2023/09/08 07:32:44;;;;;;;;;16.00;13.67;;;;;24.15;54.82;100294.09;6288492;20;3554529;-59
2023/09/08 07:35:14;;;;;;;;;16.67;16.67;;;;;24.57;54.38;100286.81;6319950;20;3562769;-58
2023/09/08 07:37:43;;;;;;;;;19.00;17.33;;;;;24.69;53.45;100286.28;6281599;20;2483705;-57
2023/09/08 07:40:12;;;;;;;;;17.00;16.33;;;;;24.12;56.23;100283.44;6318923;20;3560673;-57
2023/09/08 07:42:41;;;;;;;;;14.00;14.00;;;;;24.66;54.40;100285.78;6285533;20;3539861;-58
2023/09/08 07:45:09;;;;;;;;;9.00;7.50;;;;;25.08;53.41;100281.97;6316207;20;2712832;-59
2023/09/08 07:47:38;;;;;;;;;15.67;15.67;;;;;24.29;54.52;100276.94;6316276;20;3552460;-59
2023/09/08 07:50:23;;;;;;;;;16.33;15.00;;;;;24.81;53.27;100277.72;6311873;20;3551427;-56
2023/09/08 07:52:55;;;;;;;;;18.67;18.67;;;;;24.62;54.07;100279.78;6285597;20;3571189;-67
2023/09/08 07:55:28;;;;;;;;;19.00;16.67;;;;;24.90;52.60;100271.19;6281073;20;2839910;-59
2023/09/08 07:57:58;;;;;;;;;19.00;17.67;;;;;25.10;52.01;100275.28;6314242;20;3575239;-60
2023/09/08 08:00:27;;;;;;;;;18.00;16.67;;;;;25.14;52.21;100279.38;6279424;20;3572248;-59
2023/09/08 08:02:57;;;;;;;;;18.00;15.33;;;;;25.17;51.47;100287.34;6279030;20;3558746;-60
2023/09/08 08:05:26;;;;;;;;;15.00;15.00;;;;;25.75;51.22;100287.13;6271759;20;2814918;-62
2023/09/08 08:07:55;;;;;;;;;18.00;16.33;;;;;25.40;51.74;100283.81;6286481;20;3554501;-59
2023/09/08 08:10:24;;;;;;;;;18.00;16.00;;;;;26.01;50.78;100296.03;6316929;20;3564938;-61
2023/09/08 08:12:52;;;;;;;;;14.00;14.00;;;;;25.26;51.64;100287.31;6282894;20;3531539;-62
2023/09/08 08:15:22;;;;;;;;;16.00;15.00;;;;;25.36;51.84;100287.97;6312506;20;2823308;-62
2023/09/08 08:17:51;;;;;;;;;17.00;17.00;;;;;25.75;51.17;100287.13;6278633;20;2837985;-62
2023/09/08 08:20:20;;;;;;;;;15.00;15.00;;;;;26.19;51.15;100283.84;6280929;20;2816917;-63
2023/09/08 08:22:49;;;;;;;;;18.33;16.67;;;;;26.34;50.37;100282.06;6287715;20;3573242;-63
2023/09/08 08:25:17;;;;;;;;;15.33;15.33;;;;;26.79;50.30;100283.09;6284787;20;3547183;-63
2023/09/08 08:27:46;;;;;;;;;13.33;13.33;;;;;26.90;48.99;100290.94;6314272;20;3534792;-63
2023/09/08 08:30:15;;;;;;;;;13.00;13.00;;;;;26.80;48.34;100279.31;6317012;20;3531504;-61
2023/09/08 08:32:46;;;;;;;;;16.57;16.00;;;;;26.77;48.80;100282.44;6329020;20;3556671;-61
2023/09/08 08:35:15;;;;;;;;;17.00;12.00;;;;;26.29;48.82;100278.97;6281294;20;3554445;-62
2023/09/08 08:37:44;;;;;;;;;14.50;14.50;;;;;26.81;49.14;100266.41;6276468;20;2809694;-64
2023/09/08 08:40:13;;;;;;;;;13.00;13.00;;;;;26.87;48.91;100277.53;6284945;20;2483827;-65
2023/09/08 08:42:42;;;;;;;;;12.67;12.00;;;;;27.11;47.32;100270.06;6313036;20;3511707;-64
2023/09/08 08:45:12;;;;;;;;;14.50;13.00;;;;;27.33;46.96;100268.31;6312237;20;2804491;-64
2023/09/08 08:47:42;;;;;;;;;13.00;13.00;;;;;27.57;46.63;100273.56;6282088;20;2483679;-64
2023/09/08 08:50:11;;;;;;;;;12.33;12.33;;;;;26.74;47.00;100268.19;6314750;20;3530601;-64
2023/09/08 08:52:40;;;;;;;;;14.00;13.33;;;;;27.14;46.10;100270.53;6312648;20;3509629;-59
2023/09/08 08:55:09;;;;;;;;;12.33;11.67;;;;;27.48;45.97;100268.31;6312647;20;2787063;-64
2023/09/08 08:57:39;;;;;;;;;14.33;13.67;;;;;27.04;46.38;100269.09;6314487;20;3538914;-65
2023/09/08 09:00:12;;;;;;;;;12.00;12.00;;;;;27.04;45.28;100272.75;6312174;20;2483671;-63
2023/09/08 09:02:43;;;;;;;;;14.00;12.67;;;;;27.14;46.34;100267.78;6313562;20;2484069;-64
2023/09/08 09:05:21;;;;;;;;;13.67;11.33;;;;;27.68;44.93;100269.47;6315711;20;3532585;-63
2023/09/08 09:07:51;;;;;;;;;13.33;13.33;;;;;28.01;45.09;100266.28;6311073;20;3511744;-63
2023/09/08 09:10:20;;;;;;;;;11.67;10.00;;;;;27.70;45.12;100267.38;6282509;20;2485679;-62
2023/09/08 09:12:48;;;;;;;;;12.00;11.33;;;;;27.65;44.96;100269.84;6310869;20;2483649;-60
2023/09/08 09:15:32;;;;;;;;;13.67;13.00;;;;;27.76;45.29;100272.13;6317410;20;3515905;-63
2023/09/08 09:18:08;;;;;;;;;13.33;13.00;;;;;28.08;44.69;100263.63;6318611;20;3523172;-63
2023/09/08 09:20:37;;;;;;;;;11.67;11.67;;;;;28.19;43.37;100265.88;6316910;20;3510682;-63
2023/09/08 09:23:05;;;;;;;;;11.00;11.00;;;;;27.87;43.71;100267.19;6320109;20;2483567;-63
2023/09/08 09:25:35;;;;;;;;;12.33;12.33;;;;;27.51;44.40;100263.28;6316118;20;3513804;-63
2023/09/08 09:28:05;;;;;;;;;9.00;9.00;;;;;27.64;43.26;100262.59;6284786;20;2743092;-64
2023/09/08 09:30:56;;;;;;;;;12.33;11.00;;;;;27.60;43.91;100258.53;6322241;20;2786930;-64
2023/09/08 09:33:25;;;;;;;;;14.00;11.33;;;;;27.88;43.27;100261.47;6315790;20;3503366;-63
2023/09/08 09:35:55;;;;;;;;;16.00;14.00;;;;;27.33;44.05;100260.91;6316249;20;3544016;-62
2023/09/08 09:38:28;;;;;;;;;11.00;11.00;;;;;28.14;42.79;100258.16;6285917;20;3510720;-63
2023/09/08 09:40:58;;;;;;;;;11.33;11.33;;;;;28.27;41.63;100265.75;6285427;20;3510737;-62
2023/09/08 09:43:29;;;;;;;;;10.67;10.67;;;;;27.49;43.37;100259.00;6286890;20;3518030;-63
2023/09/08 09:45:58;;;;;;;;;12.00;11.00;;;;;28.07;42.43;100256.38;6283663;20;3510802;-65
2023/09/08 09:48:28;;;;;;;;;14.67;11.33;;;;;28.38;41.13;100264.38;6315539;20;3522351;-65
2023/09/08 09:50:57;;;;;;;;;12.67;11.33;;;;;28.12;42.56;100254.75;6312136;20;3512780;-65
2023/09/08 09:53:25;;;;;;;;;12.00;12.00;;;;;27.94;42.07;100255.19;6320116;20;3521088;-64
2023/09/08 09:55:55;;;;;;;;;14.33;11.00;;;;;28.54;41.40;100253.13;6316080;20;3516980;-67
2023/09/08 09:58:25;;;;;;;;;10.00;10.00;;;;;28.42;41.13;100260.19;6282173;20;3513930;-65
2023/09/08 10:00:54;;;;;;;;;12.67;10.33;;;;;28.12;41.25;100254.75;6277481;20;2492189;-63
2023/09/08 10:03:24;;;;;;;;;12.00;12.00;;;;;27.75;41.54;100252.97;6312037;20;3535803;-63
2023/09/08 10:05:54;;;;;;;;;12.00;10.67;;;;;28.16;42.19;100252.47;6285245;20;3510738;-64
2023/09/08 10:08:24;;;;;;;;;13.00;11.67;;;;;28.34;41.32;100252.88;6313368;20;3531718;-63
2023/09/08 10:10:53;;;;;;;;;12.67;11.67;;;;;28.90;39.80;100249.38;6314222;20;3504447;-62
2023/09/08 10:13:28;;;;;;;;;14.00;13.00;;;;;28.79;40.90;100248.00;6313204;20;2782581;-65
2023/09/08 10:15:58;;;;;;;;;9.33;9.33;;;;;28.82;39.97;100249.53;6285528;20;3486710;-64
2023/09/08 10:18:30;;;;;;;;;12.00;12.00;;;;;28.95;39.47;100251.53;6313782;20;3511754;-65
2023/09/08 10:21:04;;;;;;;;;13.67;12.00;;;;;28.73;39.89;100257.09;6284620;20;3513851;-65
2023/09/08 10:23:47;;;;;;;;;12.00;11.00;;;;;29.00;38.88;100249.03;6279042;20;3512762;-65
2023/09/08 10:26:17;;;;;;;;;11.00;11.00;;;;;28.99;38.91;100255.59;6282224;20;3508605;-63
2023/09/08 10:28:47;;;;;;;;;14.00;12.67;;;;;28.85;39.71;100241.66;6313565;20;3531695;-65
2023/09/08 10:31:16;;;;;;;;;12.00;9.33;;;;;28.76;38.86;100242.88;6314300;20;3504439;-65
2023/09/08 10:33:46;;;;;;;;;12.33;11.00;;;;;28.86;39.27;100239.78;6311749;20;3511092;-63
2023/09/08 10:36:15;;;;;;;;;12.00;12.00;;;;;29.30;38.98;100242.22;6285927;20;2785704;-63
2023/09/08 10:38:47;;;;;;;;;13.33;10.00;;;;;29.27;39.19;100236.28;6316691;20;2787602;-63
2023/09/08 10:41:16;;;;;;;;;10.33;8.67;;;;;29.41;38.77;100242.72;6324740;20;2771099;-63
2023/09/08 10:43:56;;;;;;;;;10.00;10.00;;;;;29.22;38.49;100228.56;6314141;20;3501875;-62
2023/09/08 10:46:29;;;;;;;;;9.67;9.00;;;;;29.18;38.56;100238.34;6317614;20;3485680;-58
2023/09/08 10:49:08;;;;;;;;;11.00;8.67;;;;;29.19;38.34;100236.44;6311816;20;3489889;-58
2023/09/08 10:51:37;;;;;;;;;11.00;11.00;;;;;28.44;39.77;100231.34;6319950;20;2492004;-58
2023/09/08 10:54:06;;;;;;;;;12.00;11.00;;;;;29.17;39.85;100230.25;6314659;20;2794186;-54
2023/09/08 10:57:00;;;;;;;;;11.00;11.00;;;;;28.73;38.91;100234.16;6314566;20;3512872;-58
2023/09/08 10:59:35;;;;;;;;;10.33;9.00;;;;;29.13;38.14;100228.97;6312194;20;3494125;-58
2023/09/08 11:02:04;;;;;;;;;13.33;9.67;;;;;28.85;38.75;100219.56;6313870;20;3497923;-55
2023/09/08 11:04:37;;;;;;;;;10.00;9.33;;;;;28.36;39.41;100227.81;6315723;20;3489931;-59
2023/09/08 11:07:05;;;;;;;;;9.33;9.33;;;;;28.54;39.97;100225.47;6322326;20;2756632;-58